Time;durP1;ratioP1;P1;durP2;ratioP2;P2;SDS_P1;SDS_P2;PMS_P1;PMS_P2;Temp;Humidity;BMP_temperature;BMP_pressure;BME280_temperature;BME280_humidity;BME280_pressure;Samples;Min_cycle;Max_cycle;Signal;HPM_P1;HPM_P2
2023/09/23 00:01:14;;;;;;;4.90;4.00;;;;;;;;;;5011818;28;20034;-66
2023/09/23 00:03:39;;;;;;;7.80;4.15;;;;;;;;;;5011138;28;20036;-71
2023/09/23 00:06:05;;;;;;;8.18;4.05;;;;;;;;;;5011626;28;20108;-63
2023/09/23 00:08:31;;;;;;;5.80;4.15;;;;;;;;;;5011499;28;20125;-66
2023/09/23 00:10:57;;;;;;;7.60;4.30;;;;;;;;;;5011612;28;20109;-61
2023/09/23 00:13:23;;;;;;;11.15;4.05;;;;;;;;;;5011783;28;20037;-61
2023/09/23 00:15:52;;;;;;;6.78;4.13;;;;;;;;;;5010549;28;20042;-62
2023/09/23 00:18:18;;;;;;;6.82;4.22;;;;;;;;;;5079385;28;20452;-61
2023/09/23 00:20:44;;;;;;;6.80;4.25;;;;;;;;;;5011299;28;20057;-61
2023/09/23 00:23:09;;;;;;;3.97;3.63;;;;;;;;;;5078628;28;20463;-68
2023/09/23 00:25:36;;;;;;;5.82;3.80;;;;;;;;;;5078990;28;20037;-68
2023/09/23 00:28:02;;;;;;;7.25;4.18;;;;;;;;;;5010699;28;20124;-68
2023/09/23 00:30:29;;;;;;;6.15;3.65;;;;;;;;;;5079025;28;20041;-68
2023/09/23 00:32:54;;;;;;;7.15;3.97;;;;;;;;;;5078651;28;20030;-68
2023/09/23 00:35:20;;;;;;;9.25;4.10;;;;;;;;;;5079009;28;20452;-67
2023/09/23 00:37:48;;;;;;;8.00;3.75;;;;;;;;;;5010881;28;20033;-67
2023/09/23 00:40:17;;;;;;;3.67;2.95;;;;;;;;;;5011422;28;20022;-67
2023/09/23 00:42:48;;;;;;;4.10;3.10;;;;;;;;;;5079026;28;20519;-67
2023/09/23 00:45:15;;;;;;;6.70;3.42;;;;;;;;;;5077914;28;20036;-66
2023/09/23 00:47:45;;;;;;;5.47;3.92;;;;;;;;;;5080109;28;20419;-61
2023/09/23 00:50:20;;;;;;;10.02;4.18;;;;;;;;;;5099732;28;20061;-61
2023/09/23 00:52:51;;;;;;;7.88;4.93;;;;;;;;;;5014522;28;20021;-60
2023/09/23 00:55:20;;;;;;;10.48;6.07;;;;;;;;;;5014380;28;20449;-61
2023/09/23 00:57:47;;;;;;;12.65;6.82;;;;;;;;;;5082892;28;20022;-60
2023/09/23 01:00:22;;;;;;;11.40;7.80;;;;;;;;;;5014818;28;20026;-60
2023/09/23 01:02:48;;;;;;;12.63;7.75;;;;;;;;;;5014584;28;20083;-60
2023/09/23 01:05:18;;;;;;;11.05;8.20;;;;;;;;;;5014107;28;20026;-60
2023/09/23 01:07:45;;;;;;;14.55;8.93;;;;;;;;;;5013798;28;20030;-60
2023/09/23 01:10:12;;;;;;;11.85;8.80;;;;;;;;;;5081359;28;20063;-60
2023/09/23 01:12:37;;;;;;;15.52;9.10;;;;;;;;;;5081890;28;20042;-65
2023/09/23 01:15:03;;;;;;;13.50;9.85;;;;;;;;;;5013909;28;20442;-65
2023/09/23 01:17:29;;;;;;;13.25;8.93;;;;;;;;;;5014237;28;20041;-66
2023/09/23 01:19:56;;;;;;;11.45;8.65;;;;;;;;;;5014149;28;20026;-61
2023/09/23 01:22:23;;;;;;;11.95;8.98;;;;;;;;;;5014330;28;20053;-65
2023/09/23 01:24:48;;;;;;;15.18;8.85;;;;;;;;;;5098767;28;20464;-66
2023/09/23 01:27:14;;;;;;;12.48;8.52;;;;;;;;;;5013756;28;20082;-65
2023/09/23 01:29:41;;;;;;;9.35;7.60;;;;;;;;;;5013691;28;20034;-60
2023/09/23 01:32:10;;;;;;;8.40;7.30;;;;;;;;;;5014136;28;20044;-60
2023/09/23 01:34:35;;;;;;;7.32;6.13;;;;;;;;;;5081994;28;20109;-60
2023/09/23 01:37:01;;;;;;;6.57;5.10;;;;;;;;;;5013552;28;20507;-66
2023/09/23 01:39:26;;;;;;;8.05;5.32;;;;;;;;;;5013862;28;20018;-67
2023/09/23 01:41:53;;;;;;;5.85;5.25;;;;;;;;;;5013423;28;20034;-61
2023/09/23 01:44:19;;;;;;;5.97;5.35;;;;;;;;;;5012938;28;20030;-61
2023/09/23 01:46:47;;;;;;;5.50;5.00;;;;;;;;;;5013656;28;20091;-61
2023/09/23 01:49:12;;;;;;;6.68;5.07;;;;;;;;;;5081826;28;20044;-61
2023/09/23 01:51:38;;;;;;;6.53;4.88;;;;;;;;;;5064354;28;20399;-61
2023/09/23 01:54:04;;;;;;;5.82;5.28;;;;;;;;;;5081492;28;20074;-61
2023/09/23 01:56:34;;;;;;;6.32;5.72;;;;;;;;;;5081233;28;20418;-61
2023/09/23 01:59:00;;;;;;;5.53;4.93;;;;;;;;;;5081627;28;20026;-61
2023/09/23 02:01:26;;;;;;;6.70;5.35;;;;;;;;;;5080985;28;20541;-61
2023/09/23 02:03:51;;;;;;;6.70;6.00;;;;;;;;;;5081032;28;20034;-61
2023/09/23 02:06:17;;;;;;;6.90;6.20;;;;;;;;;;5081183;28;20038;-61
2023/09/23 02:08:42;;;;;;;7.03;5.70;;;;;;;;;;5064906;28;20451;-61
2023/09/23 02:11:08;;;;;;;10.07;7.35;;;;;;;;;;5013284;28;20030;-61
2023/09/23 02:13:36;;;;;;;6.90;5.78;;;;;;;;;;5013209;28;20183;-61
2023/09/23 02:16:04;;;;;;;7.30;5.88;;;;;;;;;;5012866;28;20128;-61
2023/09/23 02:18:30;;;;;;;8.00;6.53;;;;;;;;;;5013133;28;20022;-61
2023/09/23 02:20:56;;;;;;;10.00;6.63;;;;;;;;;;5013489;28;20052;-61
2023/09/23 02:23:22;;;;;;;7.78;6.30;;;;;;;;;;5013484;28;20032;-61
2023/09/23 02:25:50;;;;;;;9.77;7.28;;;;;;;;;;5012832;28;20026;-63
2023/09/23 02:28:15;;;;;;;7.50;6.65;;;;;;;;;;5012784;28;20065;-64
2023/09/23 02:30:42;;;;;;;7.40;6.63;;;;;;;;;;5081269;28;20069;-63
2023/09/23 02:33:08;;;;;;;9.18;6.63;;;;;;;;;;5013080;28;20512;-63
2023/09/23 02:35:34;;;;;;;7.22;6.53;;;;;;;;;;5013356;28;20030;-63
2023/09/23 02:37:59;;;;;;;8.55;7.05;;;;;;;;;;5080612;28;20026;-63
2023/09/23 02:40:27;;;;;;;9.77;7.20;;;;;;;;;;5081138;28;20388;-63
2023/09/23 02:42:54;;;;;;;8.02;7.10;;;;;;;;;;5097423;28;20030;-61
2023/09/23 02:45:20;;;;;;;8.95;7.05;;;;;;;;;;5081157;28;20121;-67
2023/09/23 02:47:46;;;;;;;9.68;6.85;;;;;;;;;;5012635;28;20057;-61
2023/09/23 02:50:13;;;;;;;8.00;6.72;;;;;;;;;;5013166;28;20417;-60
2023/09/23 02:52:44;;;;;;;7.70;6.63;;;;;;;;;;5012874;28;20033;-59
2023/09/23 02:55:12;;;;;;;6.82;6.10;;;;;;;;;;5080113;28;20090;-59
2023/09/23 02:57:38;;;;;;;6.38;5.50;;;;;;;;;;5079976;28;20086;-59
2023/09/23 03:00:16;;;;;;;5.75;5.22;;;;;;;;;;5012582;28;20018;-60
2023/09/23 03:02:45;;;;;;;5.13;4.72;;;;;;;;;;5012458;28;20053;-61
2023/09/23 03:05:13;;;;;;;5.18;4.50;;;;;;;;;;5012728;28;20053;-61
2023/09/23 03:07:40;;;;;;;5.32;4.88;;;;;;;;;;5012466;28;20444;-61
2023/09/23 03:10:13;;;;;;;5.68;5.15;;;;;;;;;;5079202;28;20470;-62
2023/09/23 03:12:44;;;;;;;4.85;4.45;;;;;;;;;;5012693;28;20038;-62
2023/09/23 03:15:14;;;;;;;4.80;4.40;;;;;;;;;;5109727;28;20044;-65
2023/09/23 03:17:42;;;;;;;5.25;4.28;;;;;;;;;;5095058;28;20024;-66
2023/09/23 03:20:10;;;;;;;5.43;5.03;;;;;;;;;;5094797;28;20596;-66
2023/09/23 03:22:36;;;;;;;5.10;4.57;;;;;;;;;;5110772;28;20028;-65
2023/09/23 03:25:01;;;;;;;4.55;4.15;;;;;;;;;;5095080;28;20032;-65
2023/09/23 03:27:28;;;;;;;4.28;3.97;;;;;;;;;;5094679;28;20028;-65
2023/09/23 03:29:55;;;;;;;4.85;4.38;;;;;;;;;;5093287;28;20453;-68
2023/09/23 03:32:20;;;;;;;4.70;4.38;;;;;;;;;;5093353;28;20089;-69
2023/09/23 03:34:50;;;;;;;4.90;4.40;;;;;;;;;;5094565;28;20470;-68
2023/09/23 03:37:16;;;;;;;4.37;4.00;;;;;;;;;;5093569;28;20115;-67
2023/09/23 03:39:41;;;;;;;3.88;3.58;;;;;;;;;;5094840;28;20357;-61
2023/09/23 03:42:07;;;;;;;3.42;3.13;;;;;;;;;;5093044;28;20036;-62
2023/09/23 03:44:35;;;;;;;3.45;3.20;;;;;;;;;;5093257;28;20024;-65
2023/09/23 03:47:01;;;;;;;3.15;2.72;;;;;;;;;;5094921;28;20089;-66
2023/09/23 03:49:26;;;;;;;3.40;3.20;;;;;;;;;;5093084;28;20027;-61
2023/09/23 03:51:53;;;;;;;3.33;2.85;;;;;;;;;;5093222;28;20032;-62
2023/09/23 03:54:18;;;;;;;3.67;3.20;;;;;;;;;;5093109;28;20493;-62
2023/09/23 03:56:45;;;;;;;3.28;3.08;;;;;;;;;;5093239;28;20093;-61
2023/09/23 03:59:10;;;;;;;2.97;2.78;;;;;;;;;;5109779;28;20024;-61
2023/09/23 04:01:37;;;;;;;2.78;2.67;;;;;;;;;;5092804;28;20076;-61
2023/09/23 04:04:07;;;;;;;3.15;2.85;;;;;;;;;;5094102;28;20039;-61
2023/09/23 04:06:33;;;;;;;3.10;2.80;;;;;;;;;;5092910;28;20024;-66
2023/09/23 04:08:58;;;;;;;3.15;2.95;;;;;;;;;;5110104;28;20042;-66
2023/09/23 04:11:25;;;;;;;3.22;3.03;;;;;;;;;;5092935;28;20039;-66
2023/09/23 04:13:51;;;;;;;3.28;3.08;;;;;;;;;;5106603;28;20082;-67
2023/09/23 04:16:16;;;;;;;3.78;3.47;;;;;;;;;;5079115;28;20021;-69
2023/09/23 04:18:41;;;;;;;4.07;3.88;;;;;;;;;;5011580;28;20097;-69
2023/09/23 04:21:08;;;;;;;3.10;2.90;;;;;;;;;;5011721;28;20022;-69
2023/09/23 04:23:34;;;;;;;3.47;3.28;;;;;;;;;;5011381;28;20040;-69
2023/09/23 04:26:02;;;;;;;3.35;3.05;;;;;;;;;;5048265;28;20111;-69
2023/09/23 04:28:27;;;;;;;3.28;3.08;;;;;;;;;;5056752;28;20165;-69
2023/09/23 04:30:57;;;;;;;3.38;2.67;;;;;;;;;;5052026;28;20077;-71
2023/09/23 04:33:25;;;;;;;3.75;3.45;;;;;;;;;;5028220;28;20097;-70
2023/09/23 04:35:55;;;;;;;3.75;3.20;;;;;;;;;;5061114;28;20137;-71
2023/09/23 04:38:21;;;;;;;3.38;3.15;;;;;;;;;;5077802;28;20037;-68
2023/09/23 04:40:47;;;;;;;3.38;3.08;;;;;;;;;;5010631;28;20116;-68
2023/09/23 04:43:12;;;;;;;3.00;2.80;;;;;;;;;;5001840;28;20061;-67
2023/09/23 04:45:37;;;;;;;2.97;2.75;;;;;;;;;;4990915;28;20026;-68
2023/09/23 04:48:06;;;;;;;3.08;2.88;;;;;;;;;;4990851;28;20042;-63
2023/09/23 04:50:32;;;;;;;3.28;3.08;;;;;;;;;;4990590;28;20066;-67
2023/09/23 04:52:59;;;;;;;2.92;2.67;;;;;;;;;;5057760;28;20093;-66
2023/09/23 04:55:25;;;;;;;3.08;2.88;;;;;;;;;;4990182;28;20030;-64
2023/09/23 04:57:50;;;;;;;2.65;2.55;;;;;;;;;;4990380;28;20022;-63
2023/09/23 05:00:17;;;;;;;3.75;2.83;;;;;;;;;;4990479;28;20101;-62
2023/09/23 05:02:42;;;;;;;2.97;2.78;;;;;;;;;;4990639;28;20120;-62
2023/09/23 05:05:09;;;;;;;2.63;2.30;;;;;;;;;;5057738;28;20144;-62
2023/09/23 05:07:37;;;;;;;2.60;2.40;;;;;;;;;;4991020;28;20035;-67
2023/09/23 05:10:03;;;;;;;2.65;2.45;;;;;;;;;;4990615;28;20034;-60
2023/09/23 05:12:29;;;;;;;2.38;2.17;;;;;;;;;;4990588;28;20590;-68
2023/09/23 05:14:55;;;;;;;2.35;2.25;;;;;;;;;;5032825;28;20127;-67
2023/09/23 05:17:27;;;;;;;2.45;2.25;;;;;;;;;;5092764;28;20031;-65
2023/09/23 05:19:53;;;;;;;2.30;2.00;;;;;;;;;;5093053;28;20035;-65
2023/09/23 05:22:18;;;;;;;2.38;1.98;;;;;;;;;;5093360;28;20016;-65
2023/09/23 05:24:50;;;;;;;1.95;1.85;;;;;;;;;;5075507;28;20378;-65
2023/09/23 05:27:16;;;;;;;2.38;2.17;;;;;;;;;;5075183;28;20107;-65
2023/09/23 05:29:44;;;;;;;2.30;1.75;;;;;;;;;;5092784;28;20062;-65
2023/09/23 05:32:10;;;;;;;3.20;1.65;;;;;;;;;;5092533;28;20039;-65
2023/09/23 05:34:38;;;;;;;2.35;2.25;;;;;;;;;;5095756;28;20064;-65
2023/09/23 05:37:03;;;;;;;2.28;2.17;;;;;;;;;;5078407;28;20430;-65
2023/09/23 05:39:34;;;;;;;2.25;2.05;;;;;;;;;;5078043;28;20062;-65
2023/09/23 05:42:01;;;;;;;2.50;2.30;;;;;;;;;;5096408;28;20031;-65
2023/09/23 05:44:27;;;;;;;2.38;2.17;;;;;;;;;;5094983;28;20046;-65
2023/09/23 05:46:52;;;;;;;2.75;2.55;;;;;;;;;;5095833;28;20465;-65
2023/09/23 05:49:18;;;;;;;2.75;2.55;;;;;;;;;;5095789;28;20441;-65
2023/09/23 05:51:44;;;;;;;2.63;2.20;;;;;;;;;;5096082;28;20036;-65
2023/09/23 05:54:09;;;;;;;2.40;2.20;;;;;;;;;;5096134;28;20031;-65
2023/09/23 05:56:35;;;;;;;2.78;2.25;;;;;;;;;;5096068;28;20035;-65
2023/09/23 05:59:00;;;;;;;2.28;2.10;;;;;;;;;;5095916;28;20058;-65
2023/09/23 06:01:26;;;;;;;1.98;1.75;;;;;;;;;;5095638;28;20374;-65
2023/09/23 06:03:51;;;;;;;1.75;1.65;;;;;;;;;;5095891;28;20027;-65
2023/09/23 06:06:17;;;;;;;1.83;1.73;;;;;;;;;;5095396;28;20058;-65
2023/09/23 06:08:42;;;;;;;1.63;1.38;;;;;;;;;;5095098;28;20066;-65
2023/09/23 06:11:10;;;;;;;1.83;1.73;;;;;;;;;;5095004;28;20036;-66
2023/09/23 06:13:35;;;;;;;2.00;1.45;;;;;;;;;;5095716;28;20034;-66
2023/09/23 06:16:02;;;;;;;1.50;1.40;;;;;;;;;;5093061;28;20052;-65
2023/09/23 06:18:27;;;;;;;1.10;1.02;;;;;;;;;;5095546;28;20538;-65
2023/09/23 06:20:59;;;;;;;1.33;1.23;;;;;;;;;;5094241;28;20111;-65
2023/09/23 06:23:24;;;;;;;1.25;1.17;;;;;;;;;;5095340;28;20477;-65
2023/09/23 06:25:57;;;;;;;1.10;1.10;;;;;;;;;;5095034;28;20024;-65
2023/09/23 06:28:23;;;;;;;1.08;1.00;;;;;;;;;;5095388;28;20040;-65
2023/09/23 06:30:48;;;;;;;1.30;0.88;;;;;;;;;;5095376;28;20032;-65
2023/09/23 06:33:14;;;;;;;1.15;0.80;;;;;;;;;;5094784;28;20040;-65
2023/09/23 06:35:39;;;;;;;1.95;0.70;;;;;;;;;;5095318;28;20024;-66
2023/09/23 06:38:04;;;;;;;3.67;0.85;;;;;;;;;;5095144;28;20027;-66
2023/09/23 06:40:30;;;;;;;2.92;0.70;;;;;;;;;;5095320;28;20421;-65
2023/09/23 06:42:55;;;;;;;0.90;0.60;;;;;;;;;;5095141;28;20058;-65
2023/09/23 06:45:21;;;;;;;1.15;0.68;;;;;;;;;;5076075;28;20050;-65
2023/09/23 06:47:48;;;;;;;1.13;0.70;;;;;;;;;;5095289;28;20031;-65
2023/09/23 06:50:14;;;;;;;1.48;0.70;;;;;;;;;;5094365;28;20024;-65
2023/09/23 06:52:41;;;;;;;1.10;0.60;;;;;;;;;;5095171;28;20028;-65
2023/09/23 06:55:07;;;;;;;0.60;0.60;;;;;;;;;;5094938;28;20168;-62
2023/09/23 06:57:35;;;;;;;0.60;0.60;;;;;;;;;;5076845;28;20107;-62
2023/09/23 07:00:00;;;;;;;0.65;0.65;;;;;;;;;;5094681;28;20031;-63
2023/09/23 07:02:26;;;;;;;0.70;0.65;;;;;;;;;;5093943;28;20550;-62
2023/09/23 07:04:51;;;;;;;1.65;0.60;;;;;;;;;;5094704;28;20114;-62
2023/09/23 07:07:16;;;;;;;0.60;0.60;;;;;;;;;;5075787;28;20028;-62
2023/09/23 07:09:42;;;;;;;0.60;0.60;;;;;;;;;;5094222;28;20086;-62
2023/09/23 07:12:12;;;;;;;0.43;0.43;;;;;;;;;;5093336;28;20040;-62
2023/09/23 07:14:38;;;;;;;0.50;0.50;;;;;;;;;;5062870;28;20434;-62
2023/09/23 07:17:04;;;;;;;1.23;0.40;;;;;;;;;;5011676;28;20038;-62
2023/09/23 07:19:29;;;;;;;0.40;0.40;;;;;;;;;;5011901;28;20113;-62
2023/09/23 07:21:55;;;;;;;0.70;0.60;;;;;;;;;;5020854;28;20051;-62
2023/09/23 07:24:20;;;;;;;0.47;0.40;;;;;;;;;;5077057;28;20458;-62
2023/09/23 07:26:45;;;;;;;0.50;0.50;;;;;;;;;;5091433;28;20370;-60
2023/09/23 07:29:11;;;;;;;1.38;0.50;;;;;;;;;;5089456;28;20063;-62
2023/09/23 07:31:36;;;;;;;0.43;0.43;;;;;;;;;;5072754;28;20481;-62
2023/09/23 07:34:02;;;;;;;0.57;0.57;;;;;;;;;;5089762;28;20043;-62
2023/09/23 07:36:27;;;;;;;0.50;0.50;;;;;;;;;;5090305;28;20032;-63
2023/09/23 07:38:52;;;;;;;0.40;0.40;;;;;;;;;;5090125;28;20536;-64
2023/09/23 07:41:18;;;;;;;0.60;0.60;;;;;;;;;;5091022;28;20430;-63
2023/09/23 07:43:43;;;;;;;0.60;0.60;;;;;;;;;;5072875;28;20028;-63
2023/09/23 07:46:08;;;;;;;0.70;0.50;;;;;;;;;;5089697;28;20036;-62
2023/09/23 07:48:35;;;;;;;0.63;0.60;;;;;;;;;;5090693;28;20036;-62
2023/09/23 07:51:00;;;;;;;0.60;0.60;;;;;;;;;;5090361;28;20031;-62
2023/09/23 07:53:26;;;;;;;1.77;0.88;;;;;;;;;;5034183;28;20030;-62
2023/09/23 07:55:51;;;;;;;0.70;0.70;;;;;;;;;;5007396;28;20073;-62
2023/09/23 07:58:16;;;;;;;1.05;0.95;;;;;;;;;;5007999;28;20038;-62
2023/09/23 08:00:42;;;;;;;1.70;1.60;;;;;;;;;;5008031;28;20037;-62
2023/09/23 08:03:08;;;;;;;2.08;1.20;;;;;;;;;;5007807;28;20069;-62
2023/09/23 08:05:33;;;;;;;1.25;1.15;;;;;;;;;;5007202;28;20037;-61
2023/09/23 08:07:59;;;;;;;1.25;1.25;;;;;;;;;;5007620;28;20052;-61
2023/09/23 08:10:24;;;;;;;1.45;1.45;;;;;;;;;;5007718;28;20372;-61
2023/09/23 08:12:49;;;;;;;1.55;1.50;;;;;;;;;;5007931;28;20383;-67
2023/09/23 08:15:15;;;;;;;1.58;1.48;;;;;;;;;;5007385;28;20049;-61
2023/09/23 08:17:40;;;;;;;1.65;1.55;;;;;;;;;;5004539;28;20071;-61
2023/09/23 08:20:17;;;;;;;2.00;1.75;;;;;;;;;;4985550;28;20038;-61
2023/09/23 08:22:46;;;;;;;2.60;2.40;;;;;;;;;;4986890;28;20070;-63
2023/09/23 08:25:14;;;;;;;2.15;2.05;;;;;;;;;;5070874;28;20052;-61
2023/09/23 08:27:42;;;;;;;3.20;2.78;;;;;;;;;;5090073;28;20040;-61
2023/09/23 08:30:10;;;;;;;2.78;2.55;;;;;;;;;;5090150;28;20206;-61
2023/09/23 08:32:35;;;;;;;5.00;2.80;;;;;;;;;;5089705;28;20028;-62
2023/09/23 08:35:02;;;;;;;3.13;2.80;;;;;;;;;;5053423;28;20672;-62
2023/09/23 08:37:28;;;;;;;3.17;2.97;;;;;;;;;;4987853;28;20152;-61
2023/09/23 08:39:54;;;;;;;2.78;2.55;;;;;;;;;;4987723;28;20832;-62
2023/09/23 08:42:22;;;;;;;2.70;2.58;;;;;;;;;;4987910;28;20037;-63
2023/09/23 08:44:49;;;;;;;2.58;2.47;;;;;;;;;;4986991;28;20030;-63
2023/09/23 08:47:17;;;;;;;2.90;2.65;;;;;;;;;;4987075;28;20115;-63
2023/09/23 08:49:50;;;;;;;3.30;2.92;;;;;;;;;;5053491;28;20621;-63
2023/09/23 08:52:18;;;;;;;3.35;3.15;;;;;;;;;;4986543;28;20034;-63
2023/09/23 08:54:46;;;;;;;3.70;3.50;;;;;;;;;;5053379;28;20117;-63
2023/09/23 08:57:12;;;;;;;3.45;3.05;;;;;;;;;;5036958;28;20038;-63
2023/09/23 08:59:39;;;;;;;2.78;2.55;;;;;;;;;;4986897;28;20022;-63
2023/09/23 09:02:05;;;;;;;3.08;2.83;;;;;;;;;;5054412;28;20109;-63
2023/09/23 09:04:31;;;;;;;2.75;2.55;;;;;;;;;;4986708;28;20156;-63
2023/09/23 09:06:57;;;;;;;3.28;2.97;;;;;;;;;;4986345;28;20500;-63
2023/09/23 09:09:24;;;;;;;3.47;3.22;;;;;;;;;;5056101;28;20069;-61
2023/09/23 09:11:50;;;;;;;3.40;3.17;;;;;;;;;;4990983;28;20041;-63
2023/09/23 09:14:15;;;;;;;4.05;2.92;;;;;;;;;;5013490;28;20032;-63
2023/09/23 09:16:41;;;;;;;3.38;3.17;;;;;;;;;;5092972;28;20501;-63
2023/09/23 09:19:06;;;;;;;3.17;2.97;;;;;;;;;;5093213;28;20032;-63
2023/09/23 09:21:32;;;;;;;2.63;2.42;;;;;;;;;;5093272;28;20384;-62
2023/09/23 09:23:59;;;;;;;2.90;2.70;;;;;;;;;;5074130;28;20040;-63
2023/09/23 09:26:25;;;;;;;2.83;2.70;;;;;;;;;;5092431;28;20038;-63
2023/09/23 09:28:50;;;;;;;3.10;2.85;;;;;;;;;;5090950;28;20024;-62
2023/09/23 09:31:17;;;;;;;3.55;3.28;;;;;;;;;;5091376;28;20024;-63
2023/09/23 09:33:46;;;;;;;3.45;3.22;;;;;;;;;;5092413;28;20039;-63
2023/09/23 09:36:13;;;;;;;2.63;2.42;;;;;;;;;;5093540;28;20592;-63
2023/09/23 09:38:40;;;;;;;3.25;3.00;;;;;;;;;;5095268;28;20067;-64
2023/09/23 09:41:09;;;;;;;3.03;2.83;;;;;;;;;;5095734;28;20065;-60
2023/09/23 09:43:34;;;;;;;3.15;2.85;;;;;;;;;;5096118;28;20024;-60
2023/09/23 09:46:08;;;;;;;2.80;2.60;;;;;;;;;;5094832;28;20446;-60
2023/09/23 09:48:37;;;;;;;2.22;2.13;;;;;;;;;;5111354;28;20032;-60
2023/09/23 09:51:05;;;;;;;2.30;2.20;;;;;;;;;;5096297;28;20401;-60
2023/09/23 09:53:33;;;;;;;2.08;1.98;;;;;;;;;;5095393;28;20032;-60
2023/09/23 09:55:59;;;;;;;1.90;1.80;;;;;;;;;;5092976;28;20028;-60
2023/09/23 09:58:34;;;;;;;1.65;1.55;;;;;;;;;;5095573;28;20437;-59
2023/09/23 10:01:01;;;;;;;2.03;1.92;;;;;;;;;;5094763;28;20107;-59
2023/09/23 10:03:30;;;;;;;1.90;1.80;;;;;;;;;;5093137;28;20043;-59
2023/09/23 10:05:59;;;;;;;1.80;1.70;;;;;;;;;;5108607;28;20028;-59
2023/09/23 10:08:24;;;;;;;1.70;1.60;;;;;;;;;;5109153;28;20016;-59
2023/09/23 10:10:51;;;;;;;2.00;1.90;;;;;;;;;;5093497;28;20047;-59
2023/09/23 10:13:22;;;;;;;1.58;1.48;;;;;;;;;;5094114;28;20024;-59
2023/09/23 10:15:47;;;;;;;1.77;1.67;;;;;;;;;;5093899;28;20051;-59
2023/09/23 10:18:14;;;;;;;2.33;1.60;;;;;;;;;;5094075;28;20017;-59
2023/09/23 10:20:41;;;;;;;1.55;1.33;;;;;;;;;;5076020;28;20028;-59
2023/09/23 10:23:07;;;;;;;1.63;1.52;;;;;;;;;;5095027;28;20039;-59
2023/09/23 10:25:39;;;;;;;1.73;1.63;;;;;;;;;;5094364;28;20024;-63
2023/09/23 10:28:06;;;;;;;1.65;1.55;;;;;;;;;;5077085;28;20172;-61
2023/09/23 10:30:33;;;;;;;1.55;1.48;;;;;;;;;;5076575;28;20035;-61
2023/09/23 10:32:59;;;;;;;3.08;1.45;;;;;;;;;;5076536;28;20390;-61
2023/09/23 10:35:26;;;;;;;1.60;1.52;;;;;;;;;;5076851;28;20465;-61
2023/09/23 10:37:51;;;;;;;1.70;1.60;;;;;;;;;;5091665;28;20032;-65
2023/09/23 10:40:17;;;;;;;1.95;1.85;;;;;;;;;;5081728;28;20073;-65
2023/09/23 10:42:46;;;;;;;1.70;1.55;;;;;;;;;;5094457;28;20476;-66
2023/09/23 10:45:16;;;;;;;1.73;1.63;;;;;;;;;;5094715;28;20473;-66
2023/09/23 10:47:43;;;;;;;;;;;;;;;;;;5095081;28;20032;-66
2023/09/23 10:50:09;;;;;;;1.85;1.75;;;;;;;;;;5094463;28;19904;-60
2023/09/23 10:52:36;;;;;;;2.00;1.90;;;;;;;;;;5076528;28;20522;-60
2023/09/23 10:55:01;;;;;;;2.00;1.90;;;;;;;;;;5094131;28;20111;-60
2023/09/23 10:57:27;;;;;;;1.73;1.63;;;;;;;;;;5093938;28;20060;-63
2023/09/23 10:59:53;;;;;;;1.73;1.38;;;;;;;;;;5104576;28;20024;-60
2023/09/23 11:02:19;;;;;;;1.70;1.60;;;;;;;;;;5094606;28;20367;-60
2023/09/23 11:04:46;;;;;;;1.50;1.40;;;;;;;;;;5094690;28;20020;-59
2023/09/23 11:07:11;;;;;;;1.80;1.70;;;;;;;;;;5094530;28;20012;-60
2023/09/23 11:09:37;;;;;;;1.70;1.60;;;;;;;;;;5094564;28;20036;-60
2023/09/23 11:12:27;;;;;;;1.65;1.50;;;;;;;;;;5094677;28;20036;-60
2023/09/23 11:14:53;;;;;;;1.42;1.33;;;;;;;;;;5055375;28;20049;-63
2023/09/23 11:17:19;;;;;;;1.85;1.60;;;;;;;;;;5010584;28;20041;-63
2023/09/23 11:19:51;;;;;;;1.65;1.55;;;;;;;;;;5012081;28;20108;-63
2023/09/23 11:22:22;;;;;;;1.70;1.60;;;;;;;;;;5012123;28;20402;-63
2023/09/23 11:24:48;;;;;;;1.70;1.60;;;;;;;;;;5080302;28;20045;-63
2023/09/23 11:30:49;;;;;;;1.52;1.42;;;;;;;;;;5011202;28;20091;-63
2023/09/23 11:36:50;;;;;;;1.30;1.15;;;;;;;;;;5011801;28;20509;-63
2023/09/23 11:42:50;;;;;;;1.92;1.50;;;;;;;;;;5011958;28;20032;-63
2023/09/23 11:48:50;;;;;;;1.15;1.15;;;;;;;;;;5011859;28;20020;-63
2023/09/23 11:54:52;;;;;;;1.27;1.17;;;;;;;;;;5011774;28;20540;-63
2023/09/23 12:00:54;;;;;;;1.30;1.30;;;;;;;;;;5011419;28;20037;-63
2023/09/23 12:06:53;;;;;;;2.75;1.60;;;;;;;;;;5011563;28;20028;-63
2023/09/23 12:12:56;;;;;;;1.08;1.02;;;;;;;;;;5011519;28;20090;-63
2023/09/23 12:23:26;;;;;;;2.90;1.17;;;;;;;;;;5011392;28;20024;-62
2023/09/23 12:29:27;;;;;;;1.17;1.17;;;;;;;;;;5011046;28;20588;-63
2023/09/23 12:35:29;;;;;;;1.33;1.30;;;;;;;;;;5010930;28;20076;-63
2023/09/23 12:41:30;;;;;;;1.30;1.20;;;;;;;;;;5011433;28;20421;-59
2023/09/23 12:47:31;;;;;;;1.42;1.33;;;;;;;;;;5014628;28;20400;-59
2023/09/23 12:49:59;;;;;;;1.85;1.75;;;;;;;;;;5010049;28;20023;-59
2023/09/23 12:52:25;;;;;;;1.88;1.77;;;;;;;;;;5061092;28;20030;-59
2023/09/23 12:54:50;;;;;;;2.00;1.90;;;;;;;;;;5061726;28;20091;-59
2023/09/23 12:57:16;;;;;;;1.60;1.38;;;;;;;;;;4993423;28;20045;-59
2023/09/23 12:59:41;;;;;;;1.83;1.73;;;;;;;;;;4994402;28;20023;-59
2023/09/23 13:02:06;;;;;;;1.70;1.60;;;;;;;;;;5061709;28;20026;-59
2023/09/23 13:04:32;;;;;;;1.45;1.35;;;;;;;;;;5095420;28;20531;-59
2023/09/23 13:06:57;;;;;;;1.90;1.45;;;;;;;;;;4994072;28;20026;-59
2023/09/23 13:09:22;;;;;;;1.75;1.38;;;;;;;;;;4994034;28;20034;-59
2023/09/23 13:11:48;;;;;;;1.50;1.40;;;;;;;;;;4993781;28;20480;-59
2023/09/23 13:14:13;;;;;;;2.03;1.88;;;;;;;;;;4994086;28;20484;-59
2023/09/23 13:16:38;;;;;;;1.80;1.70;;;;;;;;;;5061414;28;20514;-59
2023/09/23 13:19:04;;;;;;;1.45;1.35;;;;;;;;;;5063030;28;20097;-59
2023/09/23 13:21:29;;;;;;;2.58;1.40;;;;;;;;;;5096885;28;20024;-59
2023/09/23 13:23:54;;;;;;;2.25;1.40;;;;;;;;;;5097120;28;20376;-60
2023/09/23 13:26:20;;;;;;;1.60;1.50;;;;;;;;;;5096196;28;20114;-60
2023/09/23 13:28:45;;;;;;;1.70;1.30;;;;;;;;;;5096231;28;20051;-60
2023/09/23 13:31:11;;;;;;;1.48;1.38;;;;;;;;;;5096544;28;20123;-60
2023/09/23 13:33:36;;;;;;;1.38;1.27;;;;;;;;;;5096151;28;20118;-60
2023/09/23 13:36:02;;;;;;;1.35;1.25;;;;;;;;;;5096258;28;20051;-60
2023/09/23 13:38:27;;;;;;;1.88;1.70;;;;;;;;;;5095705;28;20020;-60
2023/09/23 13:40:53;;;;;;;1.42;1.33;;;;;;;;;;5096176;28;20012;-63
2023/09/23 13:43:19;;;;;;;1.83;1.67;;;;;;;;;;5096193;28;20063;-63
2023/09/23 13:45:45;;;;;;;1.85;1.75;;;;;;;;;;5096179;28;20028;-63
2023/09/23 13:48:11;;;;;;;1.67;1.58;;;;;;;;;;5096330;28;20036;-63
2023/09/23 13:50:37;;;;;;;2.15;1.95;;;;;;;;;;5096054;28;20039;-63
2023/09/23 13:53:02;;;;;;;2.42;1.80;;;;;;;;;;5096623;28;20120;-63
2023/09/23 13:55:28;;;;;;;1.95;1.60;;;;;;;;;;5095904;28;20118;-63
2023/09/23 13:57:53;;;;;;;1.50;1.40;;;;;;;;;;5077917;28;20024;-62
2023/09/23 14:00:19;;;;;;;2.90;1.50;;;;;;;;;;5096344;28;20359;-63
2023/09/23 14:02:44;;;;;;;1.63;1.52;;;;;;;;;;5096608;28;20024;-63
2023/09/23 14:05:10;;;;;;;1.33;1.23;;;;;;;;;;5096320;28;20035;-63
2023/09/23 14:07:36;;;;;;;1.30;1.20;;;;;;;;;;5095915;28;20470;-63
2023/09/23 14:10:03;;;;;;;2.05;1.95;;;;;;;;;;5095547;28;20050;-63
2023/09/23 14:12:28;;;;;;;2.58;2.40;;;;;;;;;;5095301;28;20561;-63
2023/09/23 14:22:17;;;;;;;222.32;89.53;;;;;;;;;;5096259;28;20085;-63
2023/09/23 14:28:17;;;;;;;299.63;95.22;;;;;;;;;;5096173;28;20031;-62
2023/09/23 14:34:17;;;;;;;517.10;280.27;;;;;;;;;;5096018;28;20385;-62
2023/09/23 14:40:17;;;;;;;28.80;23.45;;;;;;;;;;5095914;28;20076;-62
2023/09/23 14:46:18;;;;;;;31.70;28.70;;;;;;;;;;5095842;28;20382;-62
2023/09/23 14:52:18;;;;;;;90.60;66.03;;;;;;;;;;5095711;28;20081;-62
2023/09/23 14:58:19;;;;;;;3.53;3.22;;;;;;;;;;5095594;28;20035;-62
2023/09/23 15:04:19;;;;;;;3.30;3.10;;;;;;;;;;5095495;28;20066;-62
2023/09/23 15:10:21;;;;;;;2.15;1.98;;;;;;;;;;5095385;28;20440;-62
2023/09/23 15:16:21;;;;;;;2.30;2.10;;;;;;;;;;5095105;28;20054;-62
2023/09/23 15:26:51;;;;;;;2.17;2.00;;;;;;;;;;5095121;28;20031;-62
2023/09/23 15:32:51;;;;;;;3.63;2.10;;;;;;;;;;5094957;28;20023;-62
2023/09/23 15:38:51;;;;;;;3.38;3.08;;;;;;;;;;5094802;28;20023;-62
2023/09/23 15:44:54;;;;;;;3.15;2.80;;;;;;;;;;5094729;28;20042;-62
2023/09/23 15:50:54;;;;;;;3.83;3.53;;;;;;;;;;5094600;28;20058;-62
2023/09/23 15:56:54;;;;;;;3.22;2.83;;;;;;;;;;5094243;28;20141;-62
2023/09/23 16:02:55;;;;;;;3.35;2.95;;;;;;;;;;5094384;28;20062;-62
2023/09/23 16:08:56;;;;;;;4.38;3.00;;;;;;;;;;5094306;28;20153;-62
2023/09/23 16:14:57;;;;;;;5.43;3.63;;;;;;;;;;5094243;28;20023;-62
2023/09/23 16:20:58;;;;;;;3.75;3.28;;;;;;;;;;5094019;28;20398;-62
2023/09/23 16:27:12;;;;;;;3.13;2.85;;;;;;;;;;5094097;28;20485;-62
2023/09/23 16:33:13;;;;;;;2.75;2.55;;;;;;;;;;5094042;28;20023;-62
2023/09/23 16:39:14;;;;;;;2.85;2.63;;;;;;;;;;5094000;28;20069;-62
2023/09/23 16:45:14;;;;;;;4.03;2.85;;;;;;;;;;5093686;28;20027;-62
2023/09/23 16:51:15;;;;;;;2.97;2.78;;;;;;;;;;5093634;28;20034;-62
2023/09/23 16:57:19;;;;;;;3.42;2.78;;;;;;;;;;5093544;28;20530;-62
2023/09/23 17:03:21;;;;;;;3.33;3.00;;;;;;;;;;5093575;28;20077;-62
2023/09/23 17:09:22;;;;;;;3.05;2.85;;;;;;;;;;5093491;28;20097;-62
2023/09/23 17:15:23;;;;;;;3.05;2.85;;;;;;;;;;5093586;28;20023;-62
2023/09/23 17:25:21;;;;;;;3.20;3.00;;;;;;;;;;5093593;28;20047;-62
2023/09/23 17:31:21;;;;;;;3.97;3.20;;;;;;;;;;5097320;28;20559;-62
2023/09/23 17:37:21;;;;;;;3.90;3.38;;;;;;;;;;5096906;28;20043;-62